createdAt,value
2023-05-06T00:00:18.708Z,6.07
2023-05-06T00:02:51.559Z,6.40
2023-05-06T00:05:24.614Z,6.30
2023-05-06T00:07:57.738Z,5.43
2023-05-06T00:10:30.766Z,5.67
2023-05-06T00:13:05.139Z,6.00
2023-05-06T00:15:38.032Z,6.30
2023-05-06T00:18:11.033Z,6.43
2023-05-06T00:20:44.040Z,6.67
2023-05-06T00:23:16.843Z,6.73
2023-05-06T00:25:49.501Z,6.57
2023-05-06T00:28:23.779Z,7.20
2023-05-06T00:30:56.733Z,6.03
2023-05-06T00:33:29.677Z,7.30
2023-05-06T00:36:02.762Z,6.37
2023-05-06T00:38:35.730Z,6.83
2023-05-06T00:41:08.644Z,7.03
2023-05-06T00:43:42.834Z,7.07
2023-05-06T00:46:16.943Z,7.43
2023-05-06T00:48:49.769Z,6.90
2023-05-06T00:51:22.527Z,7.23
2023-05-06T00:53:55.581Z,7.87
2023-05-06T00:56:28.425Z,6.93
2023-05-06T00:59:02.844Z,6.87
2023-05-06T01:01:38.258Z,6.83
2023-05-06T01:04:13.678Z,7.43
2023-05-06T01:06:48.552Z,7.50
2023-05-06T01:09:23.853Z,7.40
2023-05-06T01:12:01.095Z,6.97
2023-05-06T01:14:37.678Z,6.90
2023-05-06T01:17:12.343Z,6.63
2023-05-06T01:19:46.622Z,6.87
2023-05-06T01:22:19.503Z,7.00
2023-05-06T01:24:53.724Z,7.43
2023-05-06T01:27:26.448Z,7.00
2023-05-06T01:30:00.644Z,6.87
2023-05-06T01:32:41.865Z,6.80
2023-05-06T01:35:18.118Z,6.77
2023-05-06T01:37:56.259Z,6.93
2023-05-06T01:40:31.780Z,7.30
2023-05-06T01:43:06.019Z,7.07
2023-05-06T01:45:40.623Z,6.87
2023-05-06T01:48:15.817Z,6.30
2023-05-06T01:50:48.687Z,6.60
2023-05-06T01:53:22.133Z,6.63
2023-05-06T01:56:00.177Z,6.93
2023-05-06T01:58:33.103Z,7.10
2023-05-06T02:01:06.418Z,7.30
2023-05-06T02:03:39.520Z,6.47
2023-05-06T02:06:12.422Z,6.73
2023-05-06T02:08:45.374Z,6.53
2023-05-06T02:11:19.952Z,7.67
2023-05-06T02:13:52.829Z,6.33
2023-05-06T02:16:31.232Z,6.57
2023-05-06T02:19:04.010Z,6.87
2023-05-06T02:21:37.024Z,7.23
2023-05-06T02:24:09.920Z,7.00
2023-05-06T02:26:44.217Z,6.40
2023-05-06T02:29:17.096Z,7.13
2023-05-06T02:31:49.870Z,6.97
2023-05-06T02:34:22.835Z,6.70
2023-05-06T02:36:55.600Z,6.63
2023-05-06T02:39:28.440Z,6.83
2023-05-06T02:42:02.559Z,7.20
2023-05-06T02:44:35.362Z,5.77
2023-05-06T02:47:08.204Z,6.33
2023-05-06T02:49:40.876Z,6.57
2023-05-06T02:52:16.571Z,7.03
2023-05-06T02:54:49.375Z,7.47
2023-05-06T02:57:23.473Z,7.03
2023-05-06T02:59:58.835Z,6.83
2023-05-06T03:02:31.598Z,7.13
2023-05-06T03:05:05.220Z,7.00
2023-05-06T03:07:38.416Z,7.30
2023-05-06T03:10:11.590Z,6.73
2023-05-06T03:12:53.164Z,7.33
2023-05-06T03:15:26.077Z,7.27
2023-05-06T03:17:59.125Z,7.10
2023-05-06T03:20:31.884Z,7.07
2023-05-06T03:23:04.650Z,7.13
2023-05-06T03:25:37.913Z,7.33
2023-05-06T03:28:12.101Z,7.87
2023-05-06T03:30:44.799Z,7.20
2023-05-06T03:33:17.733Z,6.97
2023-05-06T03:35:50.560Z,7.40
2023-05-06T03:38:23.345Z,8.17
2023-05-06T03:40:56.244Z,7.37
2023-05-06T03:43:32.717Z,7.17
2023-05-06T03:46:06.924Z,8.37
2023-05-06T03:48:39.787Z,7.53
2023-05-06T03:51:12.695Z,7.67
2023-05-06T03:53:45.673Z,7.23
2023-05-06T03:56:18.909Z,7.13
2023-05-06T03:58:54.059Z,7.23
2023-05-06T04:01:26.745Z,8.23
2023-05-06T04:03:59.543Z,7.40
2023-05-06T04:06:32.574Z,8.23
2023-05-06T04:09:06.229Z,7.47
2023-05-06T04:11:39.179Z,7.67
2023-05-06T04:14:13.364Z,8.13
2023-05-06T04:16:48.661Z,6.97
2023-05-06T04:19:21.698Z,7.63
2023-05-06T04:21:54.463Z,7.60
2023-05-06T04:24:28.589Z,7.80
2023-05-06T04:27:02.522Z,7.57
2023-05-06T04:29:37.221Z,7.20
2023-05-06T04:32:13.689Z,8.37
2023-05-06T04:34:47.414Z,7.03
2023-05-06T04:37:21.149Z,8.07
2023-05-06T04:39:54.461Z,7.77
2023-05-06T04:42:27.261Z,7.50
2023-05-06T04:45:03.508Z,7.50
2023-05-06T04:47:36.556Z,7.37
2023-05-06T04:50:10.062Z,7.30
2023-05-06T04:52:43.104Z,8.07
2023-05-06T04:55:16.059Z,7.50
2023-05-06T04:57:48.854Z,7.40
2023-05-06T05:00:26.172Z,7.53
2023-05-06T05:02:59.101Z,7.27
2023-05-06T05:05:32.014Z,7.73
2023-05-06T05:08:05.075Z,7.63
2023-05-06T05:10:38.082Z,8.37
2023-05-06T05:13:10.780Z,7.43
2023-05-06T05:15:44.962Z,6.97
2023-05-06T05:18:17.707Z,7.57
2023-05-06T05:20:50.494Z,7.57
2023-05-06T05:23:23.399Z,7.40
2023-05-06T05:25:56.282Z,7.10
2023-05-06T05:28:29.125Z,7.63
2023-05-06T05:31:04.562Z,6.87
2023-05-06T05:33:37.474Z,7.37
2023-05-06T05:36:12.470Z,7.60
2023-05-06T05:38:45.455Z,7.13
2023-05-06T05:41:18.154Z,7.50
2023-05-06T05:43:50.948Z,7.70
2023-05-06T05:46:25.115Z,7.53
2023-05-06T05:48:57.927Z,7.50
2023-05-06T05:51:30.968Z,7.90
2023-05-06T05:54:03.705Z,7.37
2023-05-06T05:56:36.422Z,8.40
2023-05-06T05:59:09.186Z,8.37
2023-05-06T06:01:43.381Z,7.07
2023-05-06T06:04:18.574Z,8.17
2023-05-06T06:06:51.438Z,7.77
2023-05-06T06:09:26.980Z,7.20
2023-05-06T06:12:02.254Z,8.13
2023-05-06T06:14:36.414Z,8.03
2023-05-06T06:17:10.555Z,7.83
2023-05-06T06:19:43.268Z,7.20
2023-05-06T06:22:16.244Z,7.40
2023-05-06T06:24:49.047Z,7.57
2023-05-06T06:27:21.820Z,7.47
2023-05-06T06:29:54.701Z,7.90
2023-05-06T06:32:28.990Z,8.10
2023-05-06T06:35:01.796Z,7.83
2023-05-06T06:37:35.139Z,7.50
2023-05-06T06:40:08.734Z,7.80
2023-05-06T06:42:41.557Z,8.03
2023-05-06T06:45:14.874Z,7.20
2023-05-06T06:47:49.071Z,7.80
2023-05-06T06:50:22.098Z,7.50
2023-05-06T06:52:55.070Z,7.70
2023-05-06T06:55:28.238Z,7.60
2023-05-06T06:58:00.998Z,7.37
2023-05-06T07:00:33.986Z,7.70
2023-05-06T07:03:08.542Z,7.63
2023-05-06T07:05:41.506Z,8.37
2023-05-06T07:08:17.102Z,8.53
2023-05-06T07:10:53.084Z,7.80
2023-05-06T07:13:40.846Z,7.90
2023-05-06T07:16:13.612Z,8.00
2023-05-06T07:18:47.925Z,7.57
2023-05-06T07:21:25.364Z,8.47
2023-05-06T07:23:58.475Z,7.80
2023-05-06T07:26:31.358Z,7.60
2023-05-06T07:29:05.396Z,8.50
2023-05-06T07:31:38.838Z,8.77
2023-05-06T07:34:13.105Z,8.70
2023-05-06T07:36:45.950Z,7.93
2023-05-06T07:39:18.966Z,8.50
2023-05-06T07:41:52.125Z,8.07
2023-05-06T07:44:24.975Z,8.93
2023-05-06T07:46:58.103Z,8.40
2023-05-06T07:49:33.378Z,9.60
2023-05-06T07:52:06.705Z,8.90
2023-05-06T07:54:39.662Z,8.97
2023-05-06T07:57:15.895Z,8.87
2023-05-06T07:59:49.329Z,9.23
2023-05-06T08:02:22.533Z,9.53
2023-05-06T08:04:57.193Z,9.17
2023-05-06T08:07:30.911Z,9.33
2023-05-06T08:10:03.822Z,9.23
2023-05-06T08:12:37.439Z,9.67
2023-05-06T08:15:11.553Z,10.00
2023-05-06T08:17:44.504Z,9.73
2023-05-06T08:20:18.719Z,10.40
2023-05-06T08:22:51.529Z,10.17
2023-05-06T08:25:24.400Z,9.83
2023-05-06T08:27:57.580Z,10.73
2023-05-06T08:30:30.549Z,11.07
2023-05-06T08:33:06.539Z,10.90
2023-05-06T08:35:43.514Z,11.17
2023-05-06T08:38:16.503Z,11.53
2023-05-06T08:40:50.315Z,10.97
2023-05-06T08:43:23.751Z,11.30
2023-05-06T08:45:56.645Z,11.47
2023-05-06T08:48:29.979Z,11.77
2023-05-06T08:51:04.452Z,11.07
2023-05-06T08:53:37.667Z,11.50
2023-05-06T08:56:13.580Z,11.17
2023-05-06T08:58:47.018Z,12.27
2023-05-06T09:01:21.848Z,11.33
2023-05-06T09:03:55.086Z,12.07
2023-05-06T09:06:31.534Z,11.97
2023-05-06T09:09:07.451Z,12.33
2023-05-06T09:11:43.066Z,11.53
2023-05-06T09:14:17.656Z,11.40
2023-05-06T09:16:51.349Z,12.40
2023-05-06T09:19:24.262Z,11.67
2023-05-06T09:21:59.497Z,12.27
2023-05-06T09:24:32.403Z,12.23
2023-05-06T09:27:05.460Z,11.93
2023-05-06T09:29:41.295Z,12.27
2023-05-06T09:32:15.967Z,12.73
2023-05-06T09:34:50.244Z,12.13
2023-05-06T09:37:26.322Z,11.73
2023-05-06T09:40:00.694Z,11.53
2023-05-06T09:42:34.121Z,10.83
2023-05-06T09:45:09.637Z,12.03
2023-05-06T09:47:43.318Z,11.37
2023-05-06T09:50:16.475Z,11.57
2023-05-06T09:52:52.092Z,10.23
2023-05-06T09:55:26.893Z,10.70
2023-05-06T09:58:00.620Z,10.67
2023-05-06T10:00:33.780Z,10.93
2023-05-06T10:03:07.580Z,11.07
2023-05-06T10:05:41.701Z,10.90
2023-05-06T10:08:18.678Z,10.00
2023-05-06T10:10:51.914Z,10.47
2023-05-06T10:13:25.550Z,10.63
2023-05-06T10:16:01.763Z,9.47
2023-05-06T10:18:36.322Z,9.23
2023-05-06T10:21:17.638Z,9.53
2023-05-06T10:23:56.485Z,9.13
2023-05-06T10:26:30.380Z,8.73
2023-05-06T10:29:04.716Z,9.23
2023-05-06T10:31:39.341Z,9.03
2023-05-06T10:34:12.176Z,9.37
2023-05-06T10:36:46.679Z,9.17
2023-05-06T10:39:21.565Z,11.40
2023-05-06T10:41:54.730Z,8.73
2023-05-06T10:44:46.567Z,9.83
2023-05-06T10:47:19.965Z,9.73
2023-05-06T10:50:17.712Z,9.53
2023-05-06T10:52:52.053Z,9.00
2023-05-06T10:55:30.773Z,8.17
2023-05-06T10:58:06.681Z,6.90
2023-05-06T11:00:39.498Z,7.63
2023-05-06T11:03:13.271Z,8.23
2023-05-06T11:05:49.846Z,7.83
2023-05-06T11:08:23.936Z,7.43
2023-05-06T11:10:58.274Z,7.80
2023-05-06T11:13:35.738Z,6.97
2023-05-06T11:16:08.546Z,7.57
2023-05-06T11:18:43.943Z,8.77
2023-05-06T11:21:35.440Z,7.30
2023-05-06T11:24:13.034Z,6.90
2023-05-06T11:26:48.559Z,7.17
2023-05-06T11:29:21.892Z,6.50
2023-05-06T11:31:54.841Z,6.10
2023-05-06T11:34:28.706Z,5.60
2023-05-06T11:37:03.369Z,6.33
2023-05-06T11:39:40.808Z,5.73
2023-05-06T11:42:15.777Z,5.67
2023-05-06T11:44:48.512Z,5.47
2023-05-06T11:47:22.320Z,5.37
2023-05-06T11:49:55.710Z,5.23
2023-05-06T11:52:31.079Z,5.50
2023-05-06T11:55:09.860Z,4.60
2023-05-06T11:57:46.823Z,4.90
2023-05-06T12:00:21.252Z,5.07
2023-05-06T12:02:56.302Z,4.93
2023-05-06T12:05:29.779Z,4.70
2023-05-06T12:08:04.769Z,4.57
2023-05-06T12:10:41.008Z,4.70
2023-05-06T12:13:16.155Z,4.63
2023-05-06T12:15:49.750Z,6.63
2023-05-06T12:18:23.184Z,7.23
2023-05-06T12:20:56.353Z,5.87
2023-05-06T12:23:29.104Z,4.77
2023-05-06T12:26:06.494Z,4.40
2023-05-06T12:28:42.572Z,5.83
2023-05-06T12:31:21.889Z,7.00
2023-05-06T12:33:56.871Z,5.10
2023-05-06T12:36:30.556Z,5.37
2023-05-06T12:39:03.285Z,4.63
2023-05-06T12:41:38.128Z,5.07
2023-05-06T12:44:29.961Z,4.63
2023-05-06T12:47:05.048Z,4.17
2023-05-06T12:49:51.241Z,4.73
2023-05-06T12:52:25.133Z,4.90
2023-05-06T12:54:58.450Z,7.13
2023-05-06T12:57:31.817Z,8.97
2023-05-06T13:00:07.395Z,5.83
2023-05-06T13:02:42.117Z,5.50
2023-05-06T13:05:15.118Z,5.63
2023-05-06T13:07:48.594Z,5.80
2023-05-06T13:10:21.423Z,6.10
2023-05-06T13:12:54.487Z,5.33
2023-05-06T13:15:27.417Z,5.67
2023-05-06T13:18:01.796Z,6.00
2023-05-06T13:20:40.738Z,5.60
2023-05-06T13:23:14.919Z,5.07
2023-05-06T13:26:02.760Z,5.63
2023-05-06T13:28:39.334Z,5.33
2023-05-06T13:31:12.191Z,5.13
2023-05-06T13:33:46.461Z,4.90
2023-05-06T13:36:19.351Z,5.47
2023-05-06T13:38:52.248Z,5.00
2023-05-06T13:41:25.865Z,5.37
2023-05-06T13:44:01.538Z,5.07
2023-05-06T13:46:34.398Z,4.20
2023-05-06T13:49:08.687Z,5.10
2023-05-06T13:51:41.546Z,4.60
2023-05-06T13:54:14.386Z,4.43
2023-05-06T13:56:47.586Z,4.53
2023-05-06T13:59:20.311Z,4.00
2023-05-06T14:01:58.794Z,4.43
2023-05-06T14:04:33.774Z,3.70
2023-05-06T14:07:11.527Z,3.90
2023-05-06T14:09:48.469Z,4.20
2023-05-06T14:12:22.875Z,3.97
2023-05-06T14:14:55.977Z,4.57
2023-05-06T14:17:29.670Z,4.40
2023-05-06T14:20:05.126Z,4.33
2023-05-06T14:22:39.163Z,4.10
2023-05-06T14:25:12.170Z,3.90
2023-05-06T14:27:46.053Z,4.03
2023-05-06T14:30:20.249Z,4.37
2023-05-06T14:32:53.101Z,4.10
2023-05-06T14:35:27.338Z,3.43
2023-05-06T14:38:00.753Z,3.53
2023-05-06T14:40:33.696Z,3.40
2023-05-06T14:43:07.776Z,3.20
2023-05-06T14:45:40.662Z,3.60
2023-05-06T14:48:13.668Z,14.17
2023-05-06T14:50:47.941Z,16.60
2023-05-06T14:53:20.751Z,6.83
2023-05-06T14:55:53.627Z,4.37
2023-05-06T14:58:26.435Z,3.50
2023-05-06T15:00:59.248Z,3.43
2023-05-06T15:03:32.018Z,3.63
2023-05-06T15:06:06.457Z,3.80
2023-05-06T15:08:39.372Z,4.23
2023-05-06T15:11:12.192Z,4.17
2023-05-06T15:13:45.027Z,3.33
2023-05-06T15:16:17.795Z,3.50
2023-05-06T15:18:50.573Z,3.40
2023-05-06T15:21:24.799Z,3.40
2023-05-06T15:23:57.510Z,3.57
2023-05-06T15:26:30.659Z,3.40
2023-05-06T15:29:03.655Z,3.20
2023-05-06T15:31:39.115Z,3.60
2023-05-06T15:34:13.416Z,3.40
2023-05-06T15:36:50.735Z,3.43
2023-05-06T15:39:24.162Z,2.97
2023-05-06T15:41:59.266Z,3.63
2023-05-06T15:44:32.858Z,3.20
2023-05-06T15:47:06.301Z,3.47
2023-05-06T15:52:18.820Z,3.50
2023-05-06T15:54:52.173Z,3.50
2023-05-06T15:57:25.063Z,3.47
2023-05-06T15:59:58.087Z,3.60
2023-05-06T16:02:33.672Z,3.67
2023-05-06T16:05:09.666Z,3.90
2023-05-06T16:07:44.376Z,4.00
2023-05-06T16:10:17.158Z,3.43
2023-05-06T16:12:50.209Z,3.60
2023-05-06T16:15:22.930Z,3.67
2023-05-06T16:17:55.934Z,3.60
2023-05-06T16:20:29.687Z,4.47
2023-05-06T16:23:04.045Z,4.37
2023-05-06T16:25:38.239Z,4.03
2023-05-06T16:28:11.120Z,5.00
2023-05-06T16:30:44.889Z,4.63
2023-05-06T16:33:17.849Z,4.67
2023-05-06T16:35:51.994Z,4.67
2023-05-06T16:38:26.250Z,4.30
2023-05-06T16:40:59.818Z,4.47
2023-05-06T16:43:32.794Z,5.30
2023-05-06T16:46:05.951Z,4.33
2023-05-06T16:48:40.916Z,4.47
2023-05-06T16:51:15.739Z,4.20
2023-05-06T16:53:49.954Z,4.43
2023-05-06T16:56:28.222Z,4.40
2023-05-06T16:59:05.928Z,4.80
2023-05-06T17:01:38.803Z,4.27
2023-05-06T17:04:11.645Z,5.17
2023-05-06T17:06:47.458Z,5.57
2023-05-06T17:09:22.164Z,5.47
2023-05-06T17:11:55.110Z,6.23
2023-05-06T17:14:28.135Z,5.33
2023-05-06T17:17:04.076Z,5.67
2023-05-06T17:19:36.949Z,5.57
2023-05-06T17:22:09.804Z,5.63
2023-05-06T17:24:44.017Z,5.03
2023-05-06T17:27:17.311Z,6.13
2023-05-06T17:29:50.121Z,5.00
2023-05-06T17:32:22.894Z,4.80
2023-05-06T17:34:55.959Z,5.43
2023-05-06T17:37:30.666Z,5.87
2023-05-06T17:40:06.903Z,6.20
2023-05-06T17:42:40.590Z,5.80
2023-05-06T17:45:13.536Z,5.83
2023-05-06T17:47:46.837Z,5.80
2023-05-06T17:50:19.923Z,6.03
2023-05-06T17:52:54.474Z,6.30
2023-05-06T17:55:28.745Z,6.50
2023-05-06T17:58:04.351Z,6.10
2023-05-06T18:00:40.424Z,5.87
2023-05-06T18:03:14.495Z,6.27
2023-05-06T18:05:47.333Z,6.27
2023-05-06T18:08:20.149Z,5.93
2023-05-06T18:10:56.317Z,6.33
2023-05-06T18:13:29.456Z,6.13
2023-05-06T18:16:02.304Z,6.20
2023-05-06T18:18:35.137Z,6.43
2023-05-06T18:21:08.051Z,5.73
2023-05-06T18:23:41.299Z,6.77
2023-05-06T18:26:35.320Z,6.20
2023-05-06T18:29:13.541Z,7.53
2023-05-06T18:31:46.469Z,8.20
2023-05-06T18:34:19.323Z,8.10
2023-05-06T18:36:52.431Z,8.07
2023-05-06T18:39:25.306Z,8.17
2023-05-06T18:41:59.854Z,7.60
2023-05-06T18:44:32.789Z,7.93
2023-05-06T18:47:05.957Z,8.13
2023-05-06T18:49:38.888Z,8.57
2023-05-06T18:52:14.440Z,9.07
2023-05-06T18:54:47.296Z,9.13
2023-05-06T18:57:21.553Z,8.70
2023-05-06T18:59:54.329Z,9.00
2023-05-06T19:02:30.218Z,8.97
2023-05-06T19:05:03.411Z,10.30
2023-05-06T19:07:36.244Z,11.47
2023-05-06T19:10:09.383Z,9.67
2023-05-06T19:12:44.411Z,10.03
2023-05-06T19:15:19.105Z,9.97
2023-05-06T19:17:51.884Z,11.53
2023-05-06T19:20:24.618Z,10.47
2023-05-06T19:22:57.431Z,10.70
2023-05-06T19:25:30.525Z,11.23
2023-05-06T19:28:07.740Z,11.13
2023-05-06T19:30:40.663Z,10.97
2023-05-06T19:33:13.588Z,11.77
2023-05-06T19:35:46.429Z,11.90
2023-05-06T19:38:19.801Z,11.20
2023-05-06T19:40:53.095Z,11.80
2023-05-06T19:43:27.888Z,12.13
2023-05-06T19:46:01.017Z,12.57
2023-05-06T19:48:36.245Z,12.23
2023-05-06T19:51:34.956Z,12.83
2023-05-06T19:54:07.769Z,12.33
2023-05-06T19:56:40.701Z,12.30
2023-05-06T19:59:14.816Z,13.07
2023-05-06T20:01:47.652Z,12.50
2023-05-06T20:04:20.625Z,12.53
2023-05-06T20:06:53.612Z,13.40
2023-05-06T20:09:26.566Z,12.97
2023-05-06T20:11:59.666Z,14.00
2023-05-06T20:14:33.995Z,13.10
2023-05-06T20:17:07.062Z,14.03
2023-05-06T20:19:40.022Z,12.77
2023-05-06T20:22:13.140Z,13.00
2023-05-06T20:24:47.501Z,12.80
2023-05-06T20:27:20.988Z,13.60
2023-05-06T20:29:55.143Z,14.83
2023-05-06T20:32:28.033Z,16.73
2023-05-06T20:35:05.275Z,16.50
2023-05-06T20:37:38.215Z,14.20
2023-05-06T20:40:11.699Z,17.33
2023-05-06T20:42:44.401Z,15.10
2023-05-06T20:45:18.850Z,17.00
2023-05-06T20:47:51.851Z,14.73
2023-05-06T20:50:29.510Z,16.43
2023-05-06T20:53:02.397Z,16.33
2023-05-06T20:55:44.203Z,16.90
2023-05-06T20:58:17.248Z,17.13
2023-05-06T21:00:51.411Z,14.43
2023-05-06T21:03:25.029Z,16.03
2023-05-06T21:05:58.012Z,15.83
2023-05-06T21:08:34.777Z,17.67
2023-05-06T21:11:07.672Z,15.63
2023-05-06T21:13:40.689Z,15.87
2023-05-06T21:16:15.235Z,14.33
2023-05-06T21:18:48.214Z,18.20
2023-05-06T21:21:21.383Z,17.40
2023-05-06T21:23:54.273Z,15.70
2023-05-06T21:26:30.518Z,15.47
2023-05-06T21:29:05.556Z,17.20
2023-05-06T21:31:39.723Z,16.37
2023-05-06T21:34:12.735Z,16.43
2023-05-06T21:36:45.596Z,16.00
2023-05-06T21:39:19.025Z,15.63
2023-05-06T21:41:51.922Z,16.17
2023-05-06T21:44:24.609Z,18.47
2023-05-06T21:46:58.859Z,15.57
2023-05-06T21:49:31.778Z,17.37
2023-05-06T21:52:06.346Z,15.63
2023-05-06T21:54:39.167Z,15.73
2023-05-06T21:57:12.921Z,16.13
2023-05-06T21:59:45.889Z,15.43
2023-05-06T22:02:20.372Z,14.47
2023-05-06T22:04:53.047Z,14.70
2023-05-06T22:07:26.071Z,14.43
2023-05-06T22:09:58.991Z,15.80
2023-05-06T22:12:33.621Z,14.23
2023-05-06T22:15:07.358Z,13.60
2023-05-06T22:17:41.637Z,12.93
2023-05-06T22:20:15.144Z,13.53
2023-05-06T22:22:48.654Z,12.87
2023-05-06T22:25:21.461Z,12.37
2023-05-06T22:27:54.522Z,12.60
2023-05-06T22:30:27.279Z,13.10
2023-05-06T22:33:01.501Z,12.87
2023-05-06T22:35:34.230Z,12.47
2023-05-06T22:38:07.060Z,13.77
2023-05-06T22:40:39.944Z,12.60
2023-05-06T22:43:12.678Z,12.50
2023-05-06T22:45:45.849Z,13.90
2023-05-06T22:48:20.098Z,12.87
2023-05-06T22:50:53.721Z,12.97
2023-05-06T22:53:29.337Z,12.90
2023-05-06T22:56:02.093Z,13.37
2023-05-06T22:58:35.060Z,13.47
2023-05-06T23:01:08.006Z,14.17
2023-05-06T23:03:42.308Z,12.93
2023-05-06T23:06:15.280Z,12.83
2023-05-06T23:08:48.064Z,13.60
2023-05-06T23:11:20.718Z,21.03
2023-05-06T23:13:53.511Z,15.37
2023-05-06T23:16:26.349Z,14.20
2023-05-06T23:19:00.679Z,14.03
2023-05-06T23:21:33.618Z,14.20
2023-05-06T23:24:07.078Z,13.63
2023-05-06T23:26:39.961Z,14.43
2023-05-06T23:29:12.916Z,14.10
2023-05-06T23:31:45.962Z,13.93
2023-05-06T23:34:20.161Z,12.87
2023-05-06T23:36:52.946Z,13.13
2023-05-06T23:39:26.139Z,14.50
2023-05-06T23:42:00.560Z,13.17
2023-05-06T23:44:34.217Z,14.20
2023-05-06T23:47:07.036Z,12.33
2023-05-06T23:49:41.237Z,12.73
2023-05-06T23:52:14.178Z,16.50
2023-05-06T23:54:47.092Z,13.37
2023-05-06T23:57:19.789Z,13.23
2023-05-06T23:59:54.619Z,13.43
